Time;durP1;ratioP1;P1;durP2;ratioP2;P2;SDS_P1;SDS_P2;PMS_P1;PMS_P2;Temp;Humidity;BMP_temperature;BMP_pressure;BME280_temperature;BME280_humidity;BME280_pressure;Samples;Min_cycle;Max_cycle;Signal;HPM_P1;HPM_P2
2023/03/16 00:02:09;;;;;;;40.50;19.90;;;;;;;-2.12;72.06;100713.89;131681;1254;113680;-70
2023/03/16 00:05:13;;;;;;;42.80;21.60;;;;;;;-2.15;72.44;100717.20;131482;1261;114780;-69
2023/03/16 00:08:18;;;;;;;37.20;20.30;;;;;;;-2.16;72.55;100724.02;131584;1255;113217;-70
2023/03/16 00:11:21;;;;;;;39.40;20.60;;;;;;;-2.17;72.17;100719.80;131685;1257;114726;-70
2023/03/16 00:14:25;;;;;;;41.80;19.70;;;;;;;-2.19;72.43;100720.12;131674;1254;113302;-70
2023/03/16 00:17:27;;;;;;;42.40;22.10;;;;;;;-2.20;72.91;100722.20;131716;1254;115202;-71
2023/03/16 00:20:38;;;;;;;46.20;20.60;;;;;;;-2.22;72.88;100726.56;131675;1257;114025;-70
2023/03/16 00:23:41;;;;;;;39.20;19.70;;;;;;;-2.24;72.52;100731.46;131651;1254;113639;-70
2023/03/16 00:26:53;;;;;;;37.90;21.10;;;;;;;-2.26;72.87;100732.83;131661;1254;114482;-71
2023/03/16 00:29:57;;;;;;;39.40;20.00;;;;;;;-2.28;72.66;100734.39;131709;1254;128764;-71
2023/03/16 00:33:00;;;;;;;38.60;19.40;;;;;;;-2.29;72.46;100738.75;131645;1254;114655;-71
2023/03/16 00:36:06;;;;;;;38.10;19.60;;;;;;;-2.30;72.23;100739.95;131436;1257;113315;-70
2023/03/16 00:39:10;;;;;;;37.80;19.50;;;;;;;-2.31;72.65;100743.80;131693;1254;114479;-71
2023/03/16 00:42:15;;;;;;;39.60;21.00;;;;;;;-2.33;72.61;100745.55;131275;1254;114560;-70
2023/03/16 00:45:18;;;;;;;;;;;;;;;-2.34;72.41;100744.30;131681;1254;126868;-71
2023/03/16 00:48:23;;;;;;;36.10;19.20;;;;;;;-2.36;72.83;100743.23;131638;1254;114719;-70
2023/03/16 00:51:26;;;;;;;;;;;;;;;-2.37;72.78;100742.15;131686;1257;114735;-70
2023/03/16 00:54:34;;;;;;;38.50;18.00;;;;;;;-2.38;73.07;100746.70;131460;1254;113718;-70
2023/03/16 00:57:38;;;;;;;35.40;18.30;;;;;;;-2.38;73.12;100751.58;131648;1254;114718;-69
2023/03/16 01:00:42;;;;;;;36.30;19.30;;;;;;;-2.38;73.13;100754.21;131617;1254;129272;-70
2023/03/16 01:03:46;;;;;;;42.20;19.40;;;;;;;-2.38;73.71;100751.58;131647;1254;114716;-69
2023/03/16 01:06:50;;;;;;;42.80;21.60;;;;;;;-2.38;73.47;100756.15;131683;1257;114550;-70
2023/03/16 01:09:53;;;;;;;24.70;13.20;;;;;;;-2.37;73.38;100756.86;131576;1254;114576;-70
2023/03/16 01:12:56;;;;;;;42.20;20.40;;;;;;;-2.36;73.92;100761.23;131649;1254;114549;-70
2023/03/16 01:15:59;;;;;;;44.20;20.70;;;;;;;-2.36;74.34;100760.70;131655;1255;115309;-70
2023/03/16 01:19:02;;;;;;;46.10;19.60;;;;;;;-2.35;73.49;100763.37;131656;1254;113572;-70
2023/03/16 01:22:06;;;;;;;35.30;18.50;;;;;;;-2.34;73.64;100770.89;131661;1254;114671;-70
2023/03/16 01:25:10;;;;;;;39.70;19.50;;;;;;;-2.34;73.50;100770.52;131265;1254;516306;-70
2023/03/16 01:28:13;;;;;;;27.60;14.80;;;;;;;-2.35;73.64;100777.52;131726;1255;114664;-70
2023/03/16 01:31:16;;;;;;;38.40;19.90;;;;;;;-2.36;73.79;100778.21;131649;1254;114687;-70
2023/03/16 01:34:19;;;;;;;34.20;18.90;;;;;;;-2.39;73.58;100775.20;131628;1254;114687;-69
2023/03/16 01:37:25;;;;;;;39.10;19.10;;;;;;;-2.37;73.79;100778.72;131656;1254;114668;-69
2023/03/16 01:40:28;;;;;;;38.80;18.80;;;;;;;-2.38;73.64;100787.63;131640;1254;113241;-70
2023/03/16 01:43:33;;;;;;;38.40;19.50;;;;;;;-2.38;73.72;100787.45;131627;1254;114668;-69
2023/03/16 01:46:37;;;;;;;;;;;;;;;-2.39;74.05;100790.41;131687;1254;128730;-70
2023/03/16 01:49:40;;;;;;;40.90;18.60;;;;;;;-2.41;73.96;100798.10;131693;1254;114709;-69
2023/03/16 01:52:43;;;;;;;36.80;19.30;;;;;;;-2.43;73.94;100799.30;131677;1257;115186;-69
2023/03/16 01:55:47;;;;;;;39.40;21.60;;;;;;;-2.44;74.26;100799.45;131557;1255;114700;-69
2023/03/16 01:58:51;;;;;;;40.00;21.20;;;;;;;-2.46;73.78;100795.77;131621;1254;114696;-69
2023/03/16 02:01:54;;;;;;;39.00;20.90;;;;;;;-2.47;73.84;100796.27;131422;1254;127673;-69
2023/03/16 02:05:16;;;;;;;38.90;19.40;;;;;;;-2.48;74.20;100801.87;131652;1254;114483;-68
2023/03/16 02:08:19;;;;;;;37.00;18.70;;;;;;;-2.48;74.32;100801.16;131663;1254;114686;-69
2023/03/16 02:11:23;;;;;;;34.60;17.30;;;;;;;-2.49;74.16;100802.20;131678;1254;114511;-70
2023/03/16 02:14:26;;;;;;;33.30;16.70;;;;;;;-2.49;74.03;100807.45;131630;1254;113136;-69
2023/03/16 02:17:31;;;;;;;32.80;16.50;;;;;;;-2.50;74.36;100808.83;131654;1253;129647;-70
2023/03/16 02:20:51;;;;;;;32.60;17.00;;;;;;;-2.50;74.58;100810.06;131477;1254;114742;-71
2023/03/16 02:23:54;;;;;;;33.40;16.20;;;;;;;-2.50;74.42;100812.85;131661;1257;114543;-71
2023/03/16 02:27:15;;;;;;;30.30;16.20;;;;;;;-2.51;74.47;100812.66;131646;1254;114539;-70
2023/03/16 02:30:20;;;;;;;31.30;15.90;;;;;;;-2.52;74.38;100814.41;131629;1254;114680;-70
2023/03/16 02:33:24;;;;;;;33.80;17.90;;;;;;;-2.54;74.13;100812.63;131458;1254;127700;-70
2023/03/16 02:36:27;;;;;;;30.90;16.30;;;;;;;-2.55;74.64;100814.88;131530;1254;114830;-69
2023/03/16 02:39:30;;;;;;;28.30;15.80;;;;;;;-2.57;74.37;100814.69;131654;1254;114543;-70
2023/03/16 02:42:33;;;;;;;31.90;17.00;;;;;;;-2.58;74.54;100816.43;131681;1254;113451;-70
2023/03/16 02:45:51;;;;;;;31.80;16.40;;;;;;;-2.60;74.16;100816.41;132055;1253;114767;-68
2023/03/16 02:49:03;;;;;;;32.20;15.60;;;;;;;-2.61;74.69;100821.63;131478;1260;127858;-70
2023/03/16 02:52:07;;;;;;;32.50;16.10;;;;;;;-2.62;74.36;100824.07;131705;1254;114138;-69
2023/03/16 02:55:10;;;;;;;32.40;14.90;;;;;;;-2.63;74.55;100826.15;131714;1257;114724;-69
2023/03/16 02:58:14;;;;;;;30.60;15.10;;;;;;;-2.64;74.93;100829.46;131661;1254;114671;-68
2023/03/16 03:01:18;;;;;;;31.90;15.30;;;;;;;-2.65;74.84;100831.02;131355;1254;113752;-70
2023/03/16 03:04:23;;;;;;;31.40;14.40;;;;;;;-2.65;74.86;100834.88;131402;1254;129572;-71
2023/03/16 03:07:30;;;;;;;28.00;14.90;;;;;;;-2.65;75.07;100834.17;131617;1253;114725;-71
2023/03/16 03:10:33;;;;;;;30.30;15.20;;;;;;;-2.67;75.24;100831.70;131642;1254;114681;-70
2023/03/16 03:13:43;;;;;;;40.80;17.00;;;;;;;-2.68;74.93;100832.04;131671;1254;113390;-70
2023/03/16 03:16:46;;;;;;;31.70;14.80;;;;;;;-2.69;75.21;100833.42;131672;1254;113115;-70
2023/03/16 03:19:49;;;;;;;36.60;16.70;;;;;;;-2.70;75.17;100834.45;131696;1254;114737;-71
2023/03/16 03:22:52;;;;;;;32.50;15.30;;;;;;;-2.71;74.78;100836.02;131616;1254;115327;-71
2023/03/16 03:25:59;;;;;;;28.80;15.10;;;;;;;-2.72;75.15;100840.20;131684;1253;113263;-70
2023/03/16 03:29:01;;;;;;;28.50;14.40;;;;;;;-2.73;75.14;100845.61;131710;1254;113841;-71
2023/03/16 03:32:04;;;;;;;29.60;14.30;;;;;;;-2.75;75.07;100848.91;131700;1254;114712;-71
2023/03/16 03:35:11;;;;;;;34.20;17.00;;;;;;;-2.76;75.00;100855.17;131679;1253;114661;-71
2023/03/16 03:38:14;;;;;;;37.10;15.90;;;;;;;-2.80;74.76;100853.03;131693;1254;114546;-71
2023/03/16 03:41:17;;;;;;;32.10;17.10;;;;;;;-2.81;75.14;100854.77;131637;1253;114067;-71
2023/03/16 03:44:21;;;;;;;31.70;16.50;;;;;;;-2.83;74.82;100856.66;131675;1254;114716;-71
2023/03/16 03:47:24;;;;;;;33.40;16.40;;;;;;;-2.85;74.94;100858.02;131706;1254;113159;-69
2023/03/16 03:50:27;;;;;;;40.20;17.10;;;;;;;-2.87;74.99;100857.13;131607;1257;113276;-70
2023/03/16 03:53:31;;;;;;;32.40;17.20;;;;;;;-2.89;75.07;100860.77;131637;1253;114356;-71
2023/03/16 03:56:33;;;;;;;34.30;16.00;;;;;;;-2.90;75.04;100856.55;131646;1254;114740;-70
2023/03/16 03:59:41;;;;;;;31.20;15.80;;;;;;;-2.91;74.87;100860.39;131668;1253;114783;-70
2023/03/16 04:02:44;;;;;;;26.90;14.20;;;;;;;-2.93;75.24;100861.94;131694;1254;114745;-69
2023/03/16 04:05:47;;;;;;;27.30;13.80;;;;;;;-2.94;75.47;100866.81;131670;1254;114798;-71
2023/03/16 04:08:52;;;;;;;29.40;13.60;;;;;;;-2.95;75.33;100863.48;131611;1254;114549;-68
2023/03/16 04:11:56;;;;;;;23.20;12.20;;;;;;;-2.95;75.15;100865.39;131618;1254;113133;-68
2023/03/16 04:15:01;;;;;;;24.50;12.20;;;;;;;-2.95;75.16;100868.02;131687;1254;114607;-70
2023/03/16 04:18:04;;;;;;;25.80;13.20;;;;;;;-2.95;75.41;100868.36;131626;1254;113895;-70
2023/03/16 04:21:14;;;;;;;31.10;11.80;;;;;;;-2.96;75.33;100871.33;131665;1254;129257;-70
2023/03/16 04:24:18;;;;;;;23.70;13.00;;;;;;;-2.97;75.44;100873.06;131675;1253;115212;-69
2023/03/16 04:27:22;;;;;;;27.30;13.00;;;;;;;-2.98;75.34;100875.84;131699;1254;114569;-68
2023/03/16 04:30:29;;;;;;;26.20;13.40;;;;;;;-2.99;75.37;100877.57;131474;1254;114827;-68
2023/03/16 04:33:34;;;;;;;28.90;13.70;;;;;;;-3.01;75.42;100877.89;131671;1257;114709;-70
2023/03/16 04:36:38;;;;;;;25.70;13.00;;;;;;;-3.01;75.52;100878.58;131679;1254;128188;-68
2023/03/16 04:39:44;;;;;;;27.80;13.40;;;;;;;-3.01;75.79;100885.23;131451;1253;116108;-68
2023/03/16 04:42:48;;;;;;;22.60;12.00;;;;;;;-3.02;75.61;100890.45;131652;1256;113186;-70
2023/03/16 04:45:51;;;;;;;22.10;11.40;;;;;;;-3.03;75.54;100893.76;131736;1254;114657;-69
2023/03/16 04:48:57;;;;;;;28.20;13.00;;;;;;;-3.05;75.32;100897.39;131615;1254;114831;-74
2023/03/16 04:52:00;;;;;;;21.70;12.00;;;;;;;-3.07;75.58;100901.73;131692;1254;128892;-70
2023/03/16 04:55:05;;;;;;;22.70;11.60;;;;;;;-3.08;75.57;100903.13;131394;1254;114691;-67
2023/03/16 04:58:08;;;;;;;25.00;12.80;;;;;;;-3.08;75.53;100903.98;131548;1253;114067;-68
2023/03/16 05:01:12;;;;;;;26.40;12.90;;;;;;;-3.08;75.70;100906.27;131708;1253;114776;-69
2023/03/16 05:04:15;;;;;;;23.70;11.50;;;;;;;-3.08;75.69;100905.40;131704;1254;113327;-70
2023/03/16 05:07:18;;;;;;;26.80;12.50;;;;;;;-3.07;75.71;100907.86;131668;1254;126967;-67
2023/03/16 05:10:22;;;;;;;24.10;12.10;;;;;;;-3.06;75.79;100908.39;131616;1253;114750;-74
2023/03/16 05:13:25;;;;;;;29.70;12.20;;;;;;;-3.06;75.65;100912.05;131618;1253;114812;-73
2023/03/16 05:16:30;;;;;;;21.50;10.80;;;;;;;-3.04;75.69;100913.64;131680;1254;114652;-73
2023/03/16 05:19:33;;;;;;;;;;;;;;;-3.02;75.74;100916.13;131692;1257;113806;-73
2023/03/16 05:22:40;;;;;;;27.00;11.90;;;;;;;-3.01;75.76;100918.08;131408;1257;114417;-74
2023/03/16 05:25:43;;;;;;;31.00;12.80;;;;;;;-2.98;75.74;100915.67;131587;1253;115202;-71
2023/03/16 05:28:47;;;;;;;29.60;11.80;;;;;;;-2.95;75.71;100911.36;131630;1257;114675;-70
2023/03/16 05:31:50;;;;;;;17.20;8.70;;;;;;;-2.90;75.88;100913.01;131692;1253;114483;-71
2023/03/16 05:35:02;;;;;;;30.20;13.50;;;;;;;-2.86;76.06;100919.89;131669;1254;114714;-69
2023/03/16 05:38:18;;;;;;;32.20;15.60;;;;;;;-2.81;76.14;100920.66;131676;1254;128254;-69
2023/03/16 05:41:21;;;;;;;33.20;14.50;;;;;;;-2.76;76.33;100922.48;131620;1253;114317;-73
2023/03/16 05:44:34;;;;;;;34.70;14.40;;;;;;;-2.69;76.07;100919.25;131663;1256;114557;-68
2023/03/16 05:47:46;;;;;;;33.70;15.50;;;;;;;-2.61;76.27;100917.63;131648;1253;114659;-69
2023/03/16 05:51:00;;;;;;;26.60;12.60;;;;;;;-2.53;76.23;100922.64;131611;1253;113129;-72
2023/03/16 05:54:19;;;;;;;34.10;13.50;;;;;;;-2.44;76.55;100923.98;131615;1253;127838;-69
2023/03/16 05:57:35;;;;;;;28.00;12.00;;;;;;;-2.35;76.08;100928.83;131657;1253;115311;-68
2023/03/16 06:00:45;;;;;;;26.60;11.00;;;;;;;-2.25;76.77;100931.77;131475;1257;113210;-67
2023/03/16 06:03:48;;;;;;;28.50;11.40;;;;;;;-2.15;76.72;100930.84;131640;1253;114726;-68
2023/03/16 06:06:51;;;;;;;27.60;12.60;;;;;;;-2.04;76.96;100937.45;131740;1254;113421;-69
2023/03/16 06:09:54;;;;;;;25.10;10.60;;;;;;;-1.92;77.00;100938.99;131699;1256;114702;-68
2023/03/16 06:12:57;;;;;;;28.40;12.30;;;;;;;-1.79;77.02;100942.30;131636;1254;114716;-69
2023/03/16 06:16:01;;;;;;;28.50;13.20;;;;;;;-1.64;77.26;100947.71;131614;1254;113585;-69
2023/03/16 06:19:05;;;;;;;24.10;11.80;;;;;;;-1.44;77.72;100951.43;131688;1254;114291;-70
2023/03/16 06:22:08;;;;;;;27.30;12.50;;;;;;;-1.19;77.93;100955.89;131647;1253;114692;-69
2023/03/16 06:25:12;;;;;;;24.80;12.00;;;;;;;-0.93;77.72;100960.14;131696;1253;114452;-68
2023/03/16 06:28:15;;;;;;;32.80;13.00;;;;;;;-0.66;77.85;100964.02;131633;1253;115282;-68
2023/03/16 06:31:18;;;;;;;24.20;11.50;;;;;;;-0.40;77.46;100967.36;131736;1257;114655;-67
2023/03/16 06:34:21;;;;;;;23.70;11.90;;;;;;;-0.15;77.48;100968.38;131708;1253;114441;-70
2023/03/16 06:37:24;;;;;;;18.50;9.10;;;;;;;0.11;77.61;100969.23;131631;1254;114760;-69
2023/03/16 06:40:27;;;;;;;16.50;8.80;;;;;;;0.37;77.25;100967.55;131592;1253;113439;-68
2023/03/16 06:43:30;;;;;;;18.70;9.70;;;;;;;0.61;77.04;100964.63;131671;1253;114738;-67
2023/03/16 06:46:33;;;;;;;15.50;8.00;;;;;;;0.86;77.39;100961.86;131635;1254;114832;-69
2023/03/16 06:49:36;;;;;;;13.70;7.30;;;;;;;1.11;76.95;100962.74;131647;1253;114709;-67
2023/03/16 06:52:40;;;;;;;16.20;7.20;;;;;;;1.32;76.56;100961.15;131641;1253;114585;-71
2023/03/16 06:55:43;;;;;;;14.90;7.30;;;;;;;1.54;76.30;100963.93;131648;1253;115279;-68
2023/03/16 06:58:46;;;;;;;12.90;6.90;;;;;;;1.73;76.24;100967.08;131641;1255;114038;-72
2023/03/16 07:01:50;;;;;;;23.30;9.70;;;;;;;1.95;76.25;100965.25;131664;1253;114651;-72
2023/03/16 07:04:53;;;;;;;19.50;7.50;;;;;;;2.14;75.97;100969.05;131677;1254;114062;-67
2023/03/16 07:07:58;;;;;;;;;;;;;;;2.30;75.54;100971.63;128813;1257;113970;-66
2023/03/16 07:11:01;;;;;;;17.40;6.90;;;;;;;2.45;75.33;100971.21;131668;1253;114716;-68
2023/03/16 07:14:04;;;;;;;13.40;6.20;;;;;;;2.61;75.14;100975.00;131735;1254;114747;-67
2023/03/16 07:17:09;;;;;;;15.20;6.90;;;;;;;2.78;75.11;100980.20;128642;1253;114661;-72
2023/03/16 07:20:12;;;;;;;18.60;6.20;;;;;;;2.99;74.91;100976.52;131704;1253;113733;-68
2023/03/16 07:23:15;;;;;;;9.60;5.90;;;;;;;3.21;74.90;100977.93;131657;1254;114434;-68
2023/03/16 07:26:19;;;;;;;15.70;6.60;;;;;;;3.46;75.00;100979.84;131710;1253;128059;-67
2023/03/16 07:29:22;;;;;;;14.90;6.30;;;;;;;3.68;74.38;100981.91;131656;1254;113309;-67
2023/03/16 07:32:25;;;;;;;10.10;5.90;;;;;;;3.87;74.13;100985.79;131676;1257;114722;-66
2023/03/16 07:35:29;;;;;;;13.60;5.60;;;;;;;4.09;73.59;100983.43;131707;1254;113160;-66
2023/03/16 07:38:32;;;;;;;12.20;5.80;;;;;;;4.31;73.64;100985.27;131656;1253;114712;-67
2023/03/16 07:41:52;;;;;;;13.40;5.80;;;;;;;4.61;73.43;100985.77;131660;1253;129361;-70
2023/03/16 07:44:54;;;;;;;14.90;5.50;;;;;;;4.86;73.22;100989.66;131636;1257;114670;-69
2023/03/16 07:47:58;;;;;;;12.70;5.10;;;;;;;5.14;72.57;100987.45;131704;1256;114636;-70
2023/03/16 07:51:01;;;;;;;17.10;5.90;;;;;;;5.42;72.44;100984.88;131654;1257;114706;-72
2023/03/16 07:54:04;;;;;;;11.90;4.80;;;;;;;5.64;71.61;100985.39;131644;1253;114745;-68
2023/03/16 07:57:07;;;;;;;12.70;5.00;;;;;;;5.86;71.35;100987.11;131648;1253;114658;-66
2023/03/16 08:00:12;;;;;;;18.00;4.80;;;;;;;6.10;70.77;100984.20;131710;1253;113910;-67
2023/03/16 08:03:16;;;;;;;12.70;4.00;;;;;;;6.33;70.28;100986.05;131738;1257;114760;-70
2023/03/16 08:06:19;;;;;;;10.00;4.60;;;;;;;6.57;70.09;100988.19;131700;1253;114806;-66
2023/03/16 08:09:22;;;;;;;14.60;4.40;;;;;;;6.80;69.51;100988.58;131691;1254;113218;-67
2023/03/16 08:12:24;;;;;;;10.50;4.60;;;;;;;7.01;69.10;100987.20;131616;1256;115305;-68
2023/03/16 08:15:26;;;;;;;9.90;4.80;;;;;;;7.21;68.63;100988.50;131657;1257;114645;-65
2023/03/16 08:18:30;;;;;;;17.30;6.00;;;;;;;7.42;68.27;100991.35;131703;1253;114815;-66
2023/03/16 08:21:33;;;;;;;8.00;4.00;;;;;;;7.66;67.86;100993.77;131717;1257;114530;-65
2023/03/16 08:24:35;;;;;;;11.90;4.50;;;;;;;7.89;67.73;100995.28;131667;1253;115306;-69
2023/03/16 08:27:39;;;;;;;16.90;4.20;;;;;;;8.09;67.14;101001.51;131655;1253;114537;-67
2023/03/16 08:30:47;;;;;;;11.30;4.10;;;;;;;8.23;66.56;101002.70;131567;1256;115368;-66
2023/03/16 08:33:50;;;;;;;11.30;3.70;;;;;;;8.32;65.91;101002.65;131354;1256;115245;-65
2023/03/16 08:36:54;;;;;;;11.10;4.00;;;;;;;8.35;65.49;101004.68;131570;1260;114565;-68
2023/03/16 08:39:59;;;;;;;14.80;3.60;;;;;;;8.31;65.26;101005.14;131493;1255;114592;-67
2023/03/16 08:43:02;;;;;;;13.10;3.60;;;;;;;8.23;64.85;101005.19;131298;1260;114080;-65
2023/03/16 08:46:05;;;;;;;9.30;3.30;;;;;;;8.16;64.34;101012.34;131485;1256;127644;-65
2023/03/16 08:49:08;;;;;;;12.30;3.60;;;;;;;8.09;64.31;101014.31;131484;1256;114349;-68
2023/03/16 08:52:14;;;;;;;14.60;4.50;;;;;;;8.07;64.15;101018.10;131540;1257;113173;-67
2023/03/16 08:55:17;;;;;;;15.20;4.40;;;;;;;8.02;64.08;101016.44;131515;1256;114541;-67
2023/03/16 08:58:20;;;;;;;12.40;4.60;;;;;;;8.00;63.67;101015.27;131309;1256;114175;-65
2023/03/16 09:01:24;;;;;;;11.70;3.40;;;;;;;7.99;63.11;101018.33;131473;1256;114735;-66
2023/03/16 09:04:30;;;;;;;7.10;2.70;;;;;;;7.94;62.90;101015.96;131513;1256;115333;-65
2023/03/16 09:07:36;;;;;;;12.60;2.80;;;;;;;7.89;62.29;101019.46;131486;1260;113625;-68
2023/03/16 09:10:39;;;;;;;10.90;2.60;;;;;;;7.90;62.61;101016.23;131489;1256;113168;-67
2023/03/16 09:13:43;;;;;;;8.30;3.10;;;;;;;7.92;61.64;101016.90;131547;1255;114857;-66
2023/03/16 09:16:45;;;;;;;18.30;3.50;;;;;;;7.96;61.86;101014.65;131508;1256;128835;-68
2023/03/16 09:19:48;;;;;;;17.30;3.00;;;;;;;8.02;61.83;101013.59;131535;1256;114054;-67
2023/03/16 09:22:51;;;;;;;10.50;2.40;;;;;;;8.08;61.36;101015.23;131535;1255;114794;-67
2023/03/16 09:25:58;;;;;;;9.70;3.20;;;;;;;8.12;60.87;101015.64;131571;1256;113230;-69
2023/03/16 09:29:02;;;;;;;10.50;2.50;;;;;;;8.14;60.05;101015.05;131530;1256;114652;-66
2023/03/16 09:32:07;;;;;;;9.40;3.00;;;;;;;8.09;59.50;101011.82;131654;1257;113827;-68
2023/03/16 09:35:10;;;;;;;9.50;2.40;;;;;;;8.09;59.49;101008.97;131547;1253;127884;-69
2023/03/16 09:38:14;;;;;;;10.20;2.50;;;;;;;8.12;59.47;101012.09;131763;1253;115218;-66
2023/03/16 09:41:41;;;;;;;10.40;2.70;;;;;;;8.17;59.14;101009.47;131734;1253;114658;-67
2023/03/16 09:45:05;;;;;;;5.90;2.10;;;;;;;8.25;58.90;101016.35;131331;1253;114474;-69
2023/03/16 09:48:09;;;;;;;9.20;2.70;;;;;;;8.32;57.85;101011.36;131674;1257;114598;-71
2023/03/16 09:51:22;;;;;;;9.20;2.60;;;;;;;8.27;57.52;101012.01;131651;1256;128049;-67
2023/03/16 09:54:48;;;;;;;12.60;3.00;;;;;;;8.23;57.37;101007.69;131649;1257;114675;-71
2023/03/16 09:57:52;;;;;;;11.30;2.70;;;;;;;8.29;57.43;101014.48;131709;1253;113598;-67
2023/03/16 10:01:17;;;;;;;9.90;2.00;;;;;;;8.35;56.76;101014.83;131714;1253;114740;-66
2023/03/16 10:04:39;;;;;;;7.40;2.70;;;;;;;8.31;56.15;101016.20;129002;1253;115346;-67
2023/03/16 10:08:07;;;;;;;14.10;4.80;;;;;;;8.20;56.14;101020.23;131674;1253;127890;-65
2023/03/16 10:11:17;;;;;;;7.80;2.70;;;;;;;8.22;56.26;101021.77;131675;1253;114818;-66
2023/03/16 10:14:30;;;;;;;15.00;3.00;;;;;;;8.35;56.09;101021.05;131685;1253;114661;-68
2023/03/16 10:17:59;;;;;;;7.40;2.70;;;;;;;8.43;55.86;101021.71;131735;1253;113421;-66
2023/03/16 10:21:04;;;;;;;9.00;2.40;;;;;;;8.55;55.45;101022.83;131648;1253;114655;-70
2023/03/16 10:24:26;;;;;;;9.00;4.50;;;;;;;8.55;54.79;101027.45;131672;1253;128878;-70
2023/03/16 10:27:33;;;;;;;9.20;3.60;;;;;;;8.58;54.95;101024.35;131663;1253;114774;-69
2023/03/16 10:30:37;;;;;;;8.50;3.10;;;;;;;8.66;55.38;101022.84;131690;1253;114771;-69
2023/03/16 10:33:40;;;;;;;8.20;2.90;;;;;;;8.80;54.95;101023.68;131703;1253;114705;-68
2023/03/16 10:36:44;;;;;;;8.20;3.00;;;;;;;8.94;54.58;101014.86;131703;1253;114703;-68
2023/03/16 10:39:48;;;;;;;5.60;2.60;;;;;;;9.04;54.33;101013.52;131669;1253;127970;-67
2023/03/16 10:42:52;;;;;;;8.70;3.50;;;;;;;9.03;53.65;101014.26;131510;1253;115355;-68
2023/03/16 10:46:01;;;;;;;30.00;12.50;;;;;;;9.00;53.33;101017.58;131427;1253;114707;-66
2023/03/16 10:49:04;;;;;;;17.40;7.60;;;;;;;9.05;53.48;101013.10;131735;1254;114886;-67
2023/03/16 10:52:33;;;;;;;39.80;15.10;;;;;;;9.14;53.14;101012.83;131558;1253;114828;-68
2023/03/16 10:55:42;;;;;;;8.90;3.90;;;;;;;9.18;53.19;101010.58;131587;1253;128841;-67
2023/03/16 10:58:45;;;;;;;34.00;13.10;;;;;;;9.26;52.98;101011.56;131674;1253;114809;-67
2023/03/16 11:01:48;;;;;;;16.70;6.00;;;;;;;9.31;52.83;101011.56;131639;1254;114700;-68
2023/03/16 11:04:53;;;;;;;37.40;14.90;;;;;;;9.25;51.81;101005.52;131667;1253;114541;-68
2023/03/16 11:08:01;;;;;;;19.70;8.50;;;;;;;9.14;51.81;101007.83;131713;1253;114649;-67
2023/03/16 11:11:15;;;;;;;26.10;12.20;;;;;;;9.11;51.98;101010.08;131688;1253;127843;-68
2023/03/16 11:14:25;;;;;;;14.90;3.70;;;;;;;9.16;51.41;101006.70;131653;1253;114706;-68
2023/03/16 11:17:37;;;;;;;10.30;2.60;;;;;;;9.19;51.00;100997.89;131700;1253;113296;-67
2023/03/16 11:20:40;;;;;;;8.80;2.00;;;;;;;9.21;51.25;100998.18;131722;1254;114673;-66
2023/03/16 11:23:48;;;;;;;16.40;9.40;;;;;;;9.34;51.38;100996.34;131729;1253;114096;-69
2023/03/16 11:26:58;;;;;;;7.50;2.10;;;;;;;9.47;51.47;100999.28;131624;1253;126702;-70
2023/03/16 11:30:43;;;;;;;26.80;7.30;;;;;;;9.56;51.11;100997.17;131719;1253;115160;-69
2023/03/16 11:33:47;;;;;;;13.20;3.00;;;;;;;9.62;50.88;100988.08;131658;1254;114697;-67
2023/03/16 11:37:03;;;;;;;72.10;18.10;;;;;;;9.69;50.62;100988.54;131438;1253;114700;-68
2023/03/16 11:40:47;;;;;;;40.60;11.20;;;;;;;9.79;50.13;100981.94;131349;1253;114739;-67
2023/03/16 11:44:01;;;;;;;16.90;3.90;;;;;;;9.83;49.22;100983.75;131311;1254;127888;-68
2023/03/16 11:47:43;;;;;;;14.00;3.90;;;;;;;9.80;49.32;100983.34;131686;1253;115186;-67
2023/03/16 11:51:04;;;;;;;8.20;2.30;;;;;;;9.79;49.31;100978.03;131610;1253;114719;-67
2023/03/16 11:54:30;;;;;;;12.50;4.70;;;;;;;9.74;48.50;100977.86;131639;1253;114660;-69
2023/03/16 11:57:46;;;;;;;8.70;2.30;;;;;;;9.60;48.39;100980.84;131444;1253;114498;-70
2023/03/16 12:01:27;;;;;;;28.60;7.50;;;;;;;9.49;48.69;100977.10;131659;1256;127669;-66
2023/03/16 12:04:58;;;;;;;8.20;2.70;;;;;;;9.42;48.56;100977.50;131381;1253;115436;-66
2023/03/16 12:08:37;;;;;;;9.20;2.40;;;;;;;9.30;48.26;100973.63;128969;1257;113460;-67
2023/03/16 12:11:55;;;;;;;6.40;2.80;;;;;;;9.09;47.90;100970.40;131652;1254;114649;-67
2023/03/16 12:15:20;;;;;;;22.20;7.30;;;;;;;8.93;48.45;100971.63;131690;1253;114712;-67
2023/03/16 12:18:34;;;;;;;10.90;2.50;;;;;;;8.87;48.31;100968.41;131420;1253;127686;-69
2023/03/16 12:21:40;;;;;;;28.40;8.50;;;;;;;8.85;48.12;100966.37;131680;1254;114613;-67
2023/03/16 12:24:45;;;;;;;30.80;11.90;;;;;;;8.84;47.96;100965.31;131684;1253;114677;-68
2023/03/16 12:27:52;;;;;;;17.50;6.20;;;;;;;8.89;47.99;100963.75;131693;1253;114173;-69
2023/03/16 12:31:12;;;;;;;10.80;4.70;;;;;;;8.92;47.88;100965.06;131616;1253;115164;-69
2023/03/16 12:34:50;;;;;;;11.60;6.20;;;;;;;9.05;48.29;100960.36;131294;1259;128692;-67
2023/03/16 12:38:22;;;;;;;10.30;2.80;;;;;;;9.19;47.48;100957.59;131286;1259;114866;-68
2023/03/16 12:41:59;;;;;;;7.20;2.20;;;;;;;9.32;47.63;100949.85;130543;1265;115789;-66
2023/03/16 12:45:22;;;;;;;11.70;5.50;;;;;;;9.52;47.12;100954.71;130135;1270;114947;-68
2023/03/16 12:48:32;;;;;;;10.20;2.00;;;;;;;9.67;47.02;100953.11;127329;1270;114820;-66
2023/03/16 12:51:40;;;;;;;4.20;1.90;;;;;;;9.85;47.30;100948.02;129936;1268;127883;-67
2023/03/16 12:54:54;;;;;;;8.80;1.80;;;;;;;10.02;47.24;100945.09;130369;1271;114822;-67
2023/03/16 12:58:01;;;;;;;9.70;2.60;;;;;;;10.17;46.67;100946.50;130362;1271;114560;-70
2023/03/16 13:01:10;;;;;;;7.40;3.40;;;;;;;10.22;46.20;100950.41;130330;1268;113377;-66
2023/03/16 13:04:13;;;;;;;4.90;1.80;;;;;;;10.26;45.84;100953.65;130366;1267;114728;-66
2023/03/16 13:07:23;;;;;;;4.90;2.10;;;;;;;10.32;45.96;100950.56;130310;1268;130015;-68
2023/03/16 13:10:27;;;;;;;4.50;1.70;;;;;;;10.34;45.33;100952.08;127614;1271;114746;-70
2023/03/16 13:13:31;;;;;;;8.90;2.60;;;;;;;10.28;44.46;100949.84;130452;1268;114667;-70
2023/03/16 13:16:36;;;;;;;10.00;1.90;;;;;;;10.22;44.26;100947.93;130432;1268;115053;-67
2023/03/16 13:19:39;;;;;;;7.70;2.10;;;;;;;10.14;44.09;100954.65;130583;1262;114806;-65
2023/03/16 13:22:45;;;;;;;4.60;2.00;;;;;;;10.11;44.34;100954.21;131322;1254;127766;-68
2023/03/16 13:26:03;;;;;;;4.80;2.10;;;;;;;10.12;44.14;100953.80;131329;1254;422300;-66
2023/03/16 13:29:27;;;;;;;6.10;1.60;;;;;;;10.13;44.38;100950.20;131640;1258;113661;-66
2023/03/16 13:32:32;;;;;;;7.70;3.00;;;;;;;10.15;44.18;100949.96;131712;1254;114703;-66
2023/03/16 13:35:39;;;;;;;6.80;2.90;;;;;;;10.13;43.95;100957.37;131673;1254;113509;-66
2023/03/16 13:38:43;;;;;;;6.80;2.30;;;;;;;10.09;44.03;100957.16;131471;1254;128973;-65
2023/03/16 13:42:10;;;;;;;11.30;5.60;;;;;;;10.02;43.57;100953.99;131634;1253;114696;-65
2023/03/16 13:45:15;;;;;;;10.70;4.90;;;;;;;9.97;43.24;100953.13;131655;1254;114642;-67
2023/03/16 13:48:19;;;;;;;6.70;2.10;;;;;;;9.95;43.47;100953.91;131667;1253;114474;-70
2023/03/16 13:51:23;;;;;;;5.80;2.40;;;;;;;9.93;43.44;100952.54;131687;1253;114887;-65
2023/03/16 13:54:29;;;;;;;9.40;2.10;;;;;;;9.94;43.21;100953.41;128678;1259;127873;-67
2023/03/16 13:57:37;;;;;;;4.40;2.00;;;;;;;9.93;43.09;100950.23;128684;1259;114882;-69
2023/03/16 14:00:44;;;;;;;7.00;3.30;;;;;;;9.94;43.28;100953.21;131697;1259;114716;-68
2023/03/16 14:03:48;;;;;;;9.00;3.70;;;;;;;9.93;42.42;100955.05;131678;1253;114620;-69
2023/03/16 14:06:53;;;;;;;5.20;2.30;;;;;;;9.83;42.00;100954.34;131639;1254;114802;-67